Time;durP1;ratioP1;P1;durP2;ratioP2;P2;SDS_P1;SDS_P2;PMS_P1;PMS_P2;Temp;Humidity;BMP_temperature;BMP_pressure;BME280_temperature;BME280_humidity;BME280_pressure;Samples;Min_cycle;Max_cycle;Signal;HPM_P1;HPM_P2
2022/11/08 00:03:32;;;;;;;9.65;3.33;;;9.20;99.90;;;;;;4999136;28;19928;-68
2022/11/08 00:14:10;;;;;;;8.23;2.70;;;9.30;99.90;;;;;;5000220;28;20407;-66
2022/11/08 00:16:35;;;;;;;6.95;2.30;;;9.50;99.90;;;;;;5005312;28;20022;-65
2022/11/08 00:19:01;;;;;;;11.43;2.78;;;9.60;99.90;;;;;;5004342;28;20022;-66
2022/11/08 00:21:27;;;;;;;8.23;2.30;;;9.80;99.90;;;;;;5002186;28;20679;-66
2022/11/08 00:23:53;;;;;;;7.95;2.25;;;9.90;99.90;;;;;;5003617;28;20029;-66
2022/11/08 00:26:18;;;;;;;8.05;2.55;;;10.00;99.90;;;;;;4999990;28;20093;-68
2022/11/08 00:28:44;;;;;;;12.40;2.83;;;10.10;99.90;;;;;;5002810;28;20149;-66
2022/11/08 00:31:09;;;;;;;7.43;2.45;;;10.10;99.90;;;;;;5004412;28;20062;-66
2022/11/08 00:33:36;;;;;;;10.57;2.28;;;10.10;99.90;;;;;;5002966;28;20028;-67
2022/11/08 00:36:02;;;;;;;6.65;2.47;;;10.20;99.90;;;;;;4999135;28;20186;-65
2022/11/08 00:38:27;;;;;;;9.82;2.10;;;10.30;99.90;;;;;;5001638;28;20058;-67
2022/11/08 00:40:53;;;;;;;9.95;1.85;;;10.30;99.90;;;;;;4997495;28;20049;-66
2022/11/08 00:43:19;;;;;;;6.90;2.53;;;10.40;99.90;;;;;;4999141;28;20026;-66
2022/11/08 00:45:45;;;;;;;7.45;2.10;;;10.40;99.90;;;;;;5001615;28;20030;-66
2022/11/08 00:48:11;;;;;;;6.60;2.13;;;10.50;99.90;;;;;;4999863;28;20037;-65
2022/11/08 00:50:39;;;;;;;7.45;2.30;;;10.60;99.90;;;;;;4999452;28;20034;-65
2022/11/08 00:53:05;;;;;;;8.05;1.95;;;10.60;99.90;;;;;;5000753;28;20534;-66
2022/11/08 00:55:31;;;;;;;6.20;2.42;;;10.50;99.90;;;;;;5002667;28;20162;-67
2022/11/08 00:57:57;;;;;;;7.25;2.00;;;10.50;99.90;;;;;;5002409;28;20763;-66
2022/11/08 01:00:22;;;;;;;7.18;1.83;;;10.50;99.90;;;;;;4997150;28;20828;-66
2022/11/08 01:03:17;;;;;;;7.75;2.17;;;10.50;99.90;;;;;;4996983;28;20045;-68
2022/11/08 01:05:36;;;;;;;9.80;1.98;;;10.50;99.90;;;;;;4999325;28;20527;-66
2022/11/08 01:08:02;;;;;;;8.05;1.58;;;10.50;99.90;;;;;;4999447;28;20022;-66
2022/11/08 01:10:27;;;;;;;9.55;2.22;;;10.60;99.90;;;;;;5003756;28;20040;-65
2022/11/08 01:12:53;;;;;;;9.93;2.67;;;10.60;99.90;;;;;;4996399;28;20030;-66
2022/11/08 01:15:18;;;;;;;4.13;1.85;;;10.70;99.90;;;;;;4998856;28;20094;-67
2022/11/08 01:17:44;;;;;;;6.50;1.90;;;10.70;99.90;;;;;;5009177;28;20018;-67
2022/11/08 01:20:11;;;;;;;4.60;1.60;;;10.70;99.90;;;;;;5004572;28;20121;-66
2022/11/08 01:22:36;;;;;;;5.10;1.75;;;10.70;99.90;;;;;;5001011;28;20101;-66
2022/11/08 01:25:02;;;;;;;4.35;2.00;;;10.80;99.90;;;;;;5002338;28;20037;-66
2022/11/08 01:27:28;;;;;;;8.35;1.85;;;10.80;99.90;;;;;;4999862;28;20076;-66
2022/11/08 01:29:54;;;;;;;2.58;1.70;;;10.90;99.90;;;;;;5000577;28;20394;-66
2022/11/08 01:32:19;;;;;;;8.00;1.98;;;10.90;99.90;;;;;;4999236;28;20060;-66
2022/11/08 01:34:45;;;;;;;10.35;2.72;;;11.00;99.90;;;;;;5003672;28;20023;-64
2022/11/08 01:37:10;;;;;;;8.25;1.98;;;11.00;99.90;;;;;;5004256;28;20024;-66
2022/11/08 01:39:36;;;;;;;5.93;1.88;;;11.00;99.90;;;;;;5004117;28;20126;-66
2022/11/08 01:42:01;;;;;;;9.23;2.08;;;11.00;99.90;;;;;;5000254;28;20037;-66
2022/11/08 01:44:27;;;;;;;5.05;1.77;;;11.00;99.90;;;;;;5004741;28;20084;-67
2022/11/08 01:46:53;;;;;;;6.25;1.65;;;11.00;99.90;;;;;;4995962;28;20030;-68
2022/11/08 01:49:30;;;;;;;9.07;2.05;;;11.00;99.90;;;;;;4999753;28;20068;-66
2022/11/08 01:52:04;;;;;;;8.80;2.00;;;11.00;99.90;;;;;;5001966;28;20026;-67
2022/11/08 01:54:50;;;;;;;5.22;1.80;;;11.10;99.90;;;;;;5007586;28;20042;-66
2022/11/08 01:57:56;;;;;;;6.55;1.83;;;11.00;99.90;;;;;;5008566;28;20129;-66
2022/11/08 02:00:22;;;;;;;6.78;2.08;;;11.00;99.90;;;;;;5005261;28;20033;-67
2022/11/08 02:02:55;;;;;;;8.27;2.25;;;11.00;99.90;;;;;;4997451;28;20499;-67
2022/11/08 02:05:24;;;;;;;8.40;2.58;;;11.10;99.90;;;;;;5007111;28;20044;-66
2022/11/08 02:08:03;;;;;;;8.52;1.63;;;11.00;99.90;;;;;;5010217;28;20109;-67
2022/11/08 02:10:35;;;;;;;5.78;3.00;;;11.10;99.90;;;;;;5004055;28;20025;-67
2022/11/08 02:13:01;;;;;;;5.13;1.35;;;11.00;99.90;;;;;;4998033;28;20125;-65
2022/11/08 02:15:27;;;;;;;5.80;2.13;;;11.00;99.90;;;;;;5000703;28;20036;-67
2022/11/08 02:17:53;;;;;;;6.25;1.73;;;10.90;99.90;;;;;;4994776;28;20097;-66
2022/11/08 02:20:19;;;;;;;3.78;1.30;;;10.80;99.90;;;;;;5005150;28;20026;-66
2022/11/08 02:23:00;;;;;;;2.65;1.40;;;10.70;99.90;;;;;;5002374;28;20213;-67
2022/11/08 02:25:26;;;;;;;7.00;1.80;;;10.70;99.90;;;;;;5002857;28;20112;-66
2022/11/08 02:27:51;;;;;;;7.82;1.65;;;10.50;99.90;;;;;;4998337;28;20560;-65
2022/11/08 02:30:17;;;;;;;7.45;1.88;;;10.40;99.90;;;;;;4997864;28;20495;-66
2022/11/08 02:32:42;;;;;;;8.02;1.75;;;10.30;99.90;;;;;;5002952;28;20097;-66
2022/11/08 02:35:14;;;;;;;6.78;1.90;;;10.20;99.90;;;;;;5006169;28;20510;-67
2022/11/08 02:37:39;;;;;;;5.88;1.92;;;10.20;99.90;;;;;;4998256;28;20045;-67
2022/11/08 02:40:06;;;;;;;9.32;1.83;;;10.10;99.90;;;;;;4999055;28;20026;-64
2022/11/08 02:42:32;;;;;;;6.05;1.55;;;10.00;99.90;;;;;;4993191;28;20106;-67
2022/11/08 02:44:57;;;;;;;6.38;1.67;;;10.00;99.90;;;;;;4997670;28;20100;-66
2022/11/08 02:47:23;;;;;;;4.88;1.65;;;9.90;99.90;;;;;;5007333;28;20030;-66
2022/11/08 02:49:49;;;;;;;7.57;1.80;;;9.90;99.90;;;;;;5006232;28;20357;-66
2022/11/08 02:52:15;;;;;;;7.30;1.67;;;9.80;99.90;;;;;;5022738;28;20054;-66
2022/11/08 02:54:40;;;;;;;5.50;1.83;;;9.80;99.90;;;;;;5010874;28;20056;-67
2022/11/08 02:57:06;;;;;;;5.88;1.60;;;9.70;99.90;;;;;;5002731;28;20037;-67
2022/11/08 02:59:31;;;;;;;9.48;1.85;;;9.70;99.90;;;;;;5009491;28;20188;-66
2022/11/08 03:01:57;;;;;;;6.65;1.63;;;9.60;99.90;;;;;;4998495;28;20511;-65
2022/11/08 03:04:23;;;;;;;3.28;1.70;;;9.60;99.90;;;;;;5001142;28;20089;-68
2022/11/08 03:06:48;;;;;;;8.80;2.00;;;9.60;99.90;;;;;;5004990;28;20030;-65
2022/11/08 03:09:14;;;;;;;4.68;1.90;;;9.60;99.90;;;;;;5004986;28;20118;-67
2022/11/08 03:11:39;;;;;;;7.18;2.00;;;9.50;99.90;;;;;;5008328;28;20030;-66
2022/11/08 03:14:05;;;;;;;4.53;1.90;;;9.50;99.90;;;;;;5007722;28;20085;-66
2022/11/08 03:16:30;;;;;;;8.88;1.90;;;9.50;99.90;;;;;;5011710;28;20635;-66
2022/11/08 03:18:56;;;;;;;6.57;1.80;;;9.50;99.90;;;;;;5010416;28;20021;-66
2022/11/08 03:21:22;;;;;;;9.65;2.20;;;9.40;99.90;;;;;;5007299;28;20546;-66
2022/11/08 03:23:47;;;;;;;5.68;1.95;;;9.40;99.90;;;;;;5003243;28;20030;-66
2022/11/08 03:26:13;;;;;;;3.00;1.90;;;9.30;99.90;;;;;;5002044;28;20121;-66
2022/11/08 03:28:38;;;;;;;6.63;2.10;;;9.30;99.90;;;;;;5000491;28;20021;-66
2022/11/08 03:31:04;;;;;;;7.35;1.80;;;9.20;99.90;;;;;;5001477;28;20109;-66
2022/11/08 03:33:30;;;;;;;10.35;2.20;;;9.20;99.90;;;;;;5009660;28;20026;-67
2022/11/08 03:35:55;;;;;;;7.03;2.67;;;9.20;99.90;;;;;;5002325;28;20022;-66
2022/11/08 03:38:21;;;;;;;5.85;1.90;;;9.10;99.90;;;;;;5005963;28;20444;-67
2022/11/08 03:40:47;;;;;;;3.75;2.33;;;9.20;99.90;;;;;;5003016;28;20900;-67
2022/11/08 03:43:12;;;;;;;5.90;2.22;;;9.20;99.90;;;;;;5005723;28;20030;-68
2022/11/08 03:45:38;;;;;;;8.43;4.35;;;9.20;99.90;;;;;;4997083;28;20037;-66
2022/11/08 03:48:04;;;;;;;7.97;2.90;;;9.20;99.90;;;;;;5010528;28;20430;-66
2022/11/08 03:50:29;;;;;;;9.25;3.10;;;9.20;99.90;;;;;;5003292;28;20050;-69
2022/11/08 03:52:55;;;;;;;8.77;2.50;;;9.20;99.90;;;;;;5008456;28;20077;-67
2022/11/08 03:55:24;;;;;;;7.88;2.25;;;9.30;99.90;;;;;;5009798;28;20049;-66
2022/11/08 03:57:50;;;;;;;10.43;2.85;;;9.20;99.90;;;;;;5009141;28;20061;-63
2022/11/08 04:00:18;;;;;;;7.60;2.63;;;9.20;99.90;;;;;;5005032;28;20022;-66
2022/11/08 04:02:45;;;;;;;5.10;2.20;;;9.20;99.90;;;;;;5000587;28;20100;-67
2022/11/08 04:05:12;;;;;;;7.68;2.25;;;9.20;99.90;;;;;;5003420;28;20152;-67
2022/11/08 04:07:38;;;;;;;9.23;3.38;;;9.10;99.90;;;;;;5005810;28;20036;-66
2022/11/08 04:10:05;;;;;;;9.60;3.42;;;9.10;99.90;;;;;;5000168;28;20041;-67
2022/11/08 04:15:19;;;;;;;5.15;3.45;;;9.00;99.90;;;;;;5001676;28;20080;-67
2022/11/08 04:23:16;;;;;;;6.85;2.70;;;9.00;99.90;;;;;;5003711;28;20590;-66
2022/11/08 04:25:43;;;;;;;11.93;3.53;;;9.00;99.90;;;;;;5000428;28;20056;-66
2022/11/08 04:28:09;;;;;;;6.88;3.10;;;8.90;99.90;;;;;;5037335;22;20112;-63
2022/11/08 04:30:35;;;;;;;10.52;3.40;;;8.90;99.90;;;;;;5005415;28;20017;-64
2022/11/08 04:33:02;;;;;;;9.35;3.17;;;8.90;99.90;;;;;;5009605;28;20049;-65
2022/11/08 04:35:29;;;;;;;6.05;2.95;;;8.90;99.90;;;;;;4999936;28;20121;-64
2022/11/08 04:38:01;;;;;;;8.27;3.40;;;8.90;99.90;;;;;;5006217;28;20120;-64
2022/11/08 04:40:29;;;;;;;10.82;4.25;;;8.90;99.90;;;;;;5009574;28;20092;-64
2022/11/08 04:42:55;;;;;;;13.60;3.40;;;8.90;99.90;;;;;;5010212;28;20444;-64
2022/11/08 04:45:21;;;;;;;11.32;2.95;;;8.90;99.90;;;;;;5023994;28;20104;-64
2022/11/08 04:47:47;;;;;;;14.15;3.20;;;8.90;99.90;;;;;;5016875;28;20414;-64
2022/11/08 04:50:13;;;;;;;7.28;3.40;;;8.90;99.90;;;;;;5023147;28;20072;-64
2022/11/08 04:52:39;;;;;;;14.23;3.88;;;8.90;99.90;;;;;;5013185;28;20053;-63
2022/11/08 04:55:05;;;;;;;11.27;3.65;;;8.90;99.90;;;;;;5009736;28;20025;-64
2022/11/08 04:57:31;;;;;;;9.65;4.00;;;8.90;99.90;;;;;;5010446;28;20025;-64
2022/11/08 04:59:56;;;;;;;9.63;2.78;;;8.90;99.90;;;;;;5015396;28;20440;-64
2022/11/08 05:02:22;;;;;;;8.18;3.28;;;8.80;99.90;;;;;;5024107;28;20048;-64
2022/11/08 05:04:47;;;;;;;17.75;3.78;;;8.70;99.90;;;;;;5012038;28;20026;-64
2022/11/08 05:07:13;;;;;;;10.23;3.65;;;8.70;99.90;;;;;;5019685;28;20018;-63
2022/11/08 05:09:39;;;;;;;10.73;3.20;;;8.70;99.90;;;;;;5009985;28;20026;-64
2022/11/08 05:12:04;;;;;;;3.92;2.80;;;8.70;99.90;;;;;;5004214;28;20041;-64
2022/11/08 05:14:30;;;;;;;5.65;2.67;;;8.70;99.90;;;;;;5009706;28;20038;-64
2022/11/08 05:16:56;;;;;;;5.15;2.80;;;8.70;99.90;;;;;;5010675;28;20030;-64
2022/11/08 05:25:07;;;;;;;7.88;3.20;;;8.80;99.90;;;;;;5000077;28;20073;-64
2022/11/08 05:27:33;;;;;;;8.88;2.92;;;8.70;99.90;;;;;;5006875;28;20116;-63
2022/11/08 05:29:59;;;;;;;10.05;3.20;;;8.70;99.90;;;;;;5008216;28;20030;-63
2022/11/08 05:32:24;;;;;;;5.47;2.45;;;8.60;99.90;;;;;;5011473;28;20037;-63
2022/11/08 05:34:50;;;;;;;7.32;2.55;;;8.60;99.90;;;;;;5016690;28;20116;-63
2022/11/08 05:37:16;;;;;;;6.82;2.80;;;8.60;99.90;;;;;;5017592;28;20506;-64
2022/11/08 05:39:41;;;;;;;8.88;2.10;;;8.70;99.90;;;;;;5004139;28;20461;-64
2022/11/08 05:42:07;;;;;;;4.68;2.55;;;8.80;99.90;;;;;;5008022;28;20033;-64
2022/11/08 05:44:32;;;;;;;10.75;2.45;;;8.80;99.90;;;;;;5012201;28;20470;-64
2022/11/08 05:46:58;;;;;;;5.18;2.63;;;8.80;99.90;;;;;;5013549;28;20030;-63
2022/11/08 05:49:24;;;;;;;5.45;2.67;;;8.80;99.90;;;;;;5019075;28;20025;-64
2022/11/08 05:51:49;;;;;;;8.15;2.60;;;8.80;99.90;;;;;;5022420;28;20108;-63
2022/11/08 05:54:15;;;;;;;4.90;2.55;;;8.80;99.90;;;;;;5007719;28;20065;-64
2022/11/08 05:56:40;;;;;;;7.88;1.95;;;8.80;99.90;;;;;;5007466;28;20044;-64
2022/11/08 05:59:06;;;;;;;5.78;2.30;;;8.80;99.90;;;;;;5004133;28;20022;-64
2022/11/08 06:01:32;;;;;;;7.30;2.15;;;8.70;99.90;;;;;;5005427;28;21194;-63
2022/11/08 06:03:57;;;;;;;7.25;2.10;;;8.70;99.90;;;;;;5006938;28;20423;-63
2022/11/08 06:06:23;;;;;;;11.07;2.42;;;8.70;99.90;;;;;;5019374;28;20033;-64
2022/11/08 06:08:50;;;;;;;8.05;2.08;;;8.70;99.90;;;;;;5006289;28;20455;-64
2022/11/08 06:11:20;;;;;;;7.63;2.13;;;8.70;99.90;;;;;;5010467;28;20026;-64
2022/11/08 06:13:45;;;;;;;6.20;1.83;;;8.70;99.90;;;;;;5006587;28;20025;-66
2022/11/08 06:16:14;;;;;;;5.32;2.10;;;8.60;99.90;;;;;;5016621;28;20033;-64
2022/11/08 06:18:40;;;;;;;6.10;1.88;;;8.60;99.90;;;;;;5006860;28;20022;-63
2022/11/08 06:21:09;;;;;;;6.10;2.08;;;8.60;99.90;;;;;;5008701;28;20395;-64
2022/11/08 06:23:35;;;;;;;7.38;2.20;;;8.60;99.90;;;;;;5008799;28;20030;-64
2022/11/08 06:26:00;;;;;;;3.38;1.83;;;8.60;99.90;;;;;;5009240;28;20026;-64
2022/11/08 06:28:26;;;;;;;12.73;2.00;;;8.60;99.90;;;;;;5010160;28;20080;-64
2022/11/08 06:30:52;;;;;;;2.90;1.70;;;8.60;99.90;;;;;;5011294;28;20108;-64
2022/11/08 06:33:19;;;;;;;7.65;2.10;;;8.50;99.90;;;;;;5009026;28;20547;-64
2022/11/08 06:35:45;;;;;;;10.85;2.53;;;8.60;99.90;;;;;;5010382;28;20125;-64
2022/11/08 06:38:10;;;;;;;3.58;1.70;;;8.60;99.90;;;;;;5009612;28;20104;-64
2022/11/08 06:40:38;;;;;;;6.93;2.05;;;8.60;99.90;;;;;;5022609;28;20026;-63
2022/11/08 06:43:03;;;;;;;3.03;1.38;;;8.70;99.90;;;;;;5007912;28;20018;-64
2022/11/08 06:45:29;;;;;;;7.97;1.65;;;8.70;99.90;;;;;;5017570;28;20502;-64
2022/11/08 06:48:00;;;;;;;4.35;1.65;;;8.80;99.90;;;;;;5022898;28;20026;-64
2022/11/08 06:50:26;;;;;;;4.50;1.65;;;8.70;99.90;;;;;;5022368;28;20022;-64
2022/11/08 06:52:59;;;;;;;3.30;1.58;;;8.70;99.90;;;;;;5014963;28;20030;-64
2022/11/08 06:55:25;;;;;;;4.33;1.93;;;8.70;99.90;;;;;;5014287;28;20037;-64
2022/11/08 06:57:50;;;;;;;3.40;1.52;;;8.70;99.90;;;;;;5016533;28;20021;-64
2022/11/08 07:00:16;;;;;;;4.47;1.40;;;8.70;99.90;;;;;;5016064;28;20064;-64
2022/11/08 07:02:45;;;;;;;2.03;1.42;;;8.80;99.90;;;;;;5011875;28;20032;-63
2022/11/08 07:05:11;;;;;;;5.88;1.95;;;8.80;99.90;;;;;;5008612;28;20395;-64
2022/11/08 07:07:37;;;;;;;4.20;1.33;;;8.80;99.90;;;;;;5021319;28;20176;-63
2022/11/08 07:10:04;;;;;;;3.58;1.40;;;8.80;99.90;;;;;;5007309;28;20031;-64
2022/11/08 07:12:30;;;;;;;6.57;1.52;;;8.90;99.90;;;;;;5001736;28;20112;-64
2022/11/08 07:14:55;;;;;;;4.15;1.35;;;8.90;99.90;;;;;;5006967;28;20153;-64
2022/11/08 07:17:21;;;;;;;4.85;1.50;;;8.90;99.90;;;;;;5009593;28;20025;-63
2022/11/08 07:19:46;;;;;;;6.25;2.17;;;9.00;99.90;;;;;;5005618;28;20022;-62
2022/11/08 07:22:12;;;;;;;3.75;1.17;;;9.00;99.90;;;;;;4981003;28;20045;-64
2022/11/08 07:24:38;;;;;;;5.20;1.95;;;9.10;99.90;;;;;;5008104;28;20106;-64
2022/11/08 07:27:03;;;;;;;5.10;1.50;;;9.10;99.90;;;;;;5007092;28;20042;-64
2022/11/08 07:29:29;;;;;;;6.90;1.90;;;9.20;99.90;;;;;;5005788;28;20026;-63
2022/11/08 07:31:54;;;;;;;4.97;1.42;;;9.30;99.90;;;;;;5010961;28;20029;-65
2022/11/08 07:34:20;;;;;;;4.45;1.63;;;9.30;99.90;;;;;;5017294;28;20038;-63
2022/11/08 07:36:46;;;;;;;3.50;1.30;;;9.40;99.90;;;;;;5020325;28;20423;-64
2022/11/08 07:39:11;;;;;;;3.17;1.13;;;9.50;99.90;;;;;;5010494;28;20483;-63
2022/11/08 07:41:37;;;;;;;2.15;1.20;;;9.60;99.90;;;;;;5013798;28;20479;-64
2022/11/08 07:44:03;;;;;;;4.85;2.00;;;9.70;99.90;;;;;;5020833;28;20040;-64
2022/11/08 07:46:28;;;;;;;4.22;1.20;;;9.70;99.90;;;;;;5011442;28;20037;-64
2022/11/08 07:48:54;;;;;;;3.35;1.65;;;9.80;99.90;;;;;;5011949;28;20033;-64
2022/11/08 07:51:20;;;;;;;4.00;1.40;;;9.90;99.90;;;;;;5008052;28;20053;-64
2022/11/08 07:53:45;;;;;;;3.03;1.63;;;9.90;99.90;;;;;;5009947;28;20030;-63
2022/11/08 07:56:11;;;;;;;2.20;1.33;;;9.90;99.90;;;;;;5012440;28;20029;-64
2022/11/08 07:58:37;;;;;;;6.30;1.65;;;9.90;99.90;;;;;;5017445;28;20031;-64
2022/11/08 08:01:03;;;;;;;4.95;1.65;;;9.90;99.90;;;;;;5026304;28;20021;-63
2022/11/08 08:03:29;;;;;;;3.47;2.03;;;9.90;99.90;;;;;;5007061;28;20018;-64
2022/11/08 08:05:55;;;;;;;4.55;1.30;;;10.00;99.90;;;;;;5013323;28;20383;-63
2022/11/08 08:08:21;;;;;;;3.13;1.40;;;10.10;99.90;;;;;;5024615;28;20045;-64
2022/11/08 08:10:47;;;;;;;2.03;1.33;;;10.10;99.90;;;;;;5016591;28;20025;-63
2022/11/08 08:13:12;;;;;;;5.05;1.58;;;10.10;99.90;;;;;;5020042;28;20107;-63
2022/11/08 08:15:38;;;;;;;2.72;1.60;;;10.20;99.90;;;;;;5010828;28;20475;-64
2022/11/08 08:18:05;;;;;;;3.60;1.55;;;10.20;99.90;;;;;;5013293;28;20032;-64
2022/11/08 08:20:32;;;;;;;8.13;1.85;;;10.20;99.90;;;;;;5008401;28;20566;-64
2022/11/08 08:22:58;;;;;;;3.08;1.38;;;10.20;99.90;;;;;;5010738;28;20017;-64
2022/11/08 08:25:25;;;;;;;4.43;2.00;;;10.30;99.90;;;;;;5011983;28;20506;-64
2022/11/08 08:27:53;;;;;;;2.42;1.27;;;10.40;99.90;;;;;;5011614;28;20029;-63
2022/11/08 08:30:19;;;;;;;5.20;1.73;;;10.50;99.90;;;;;;5009837;28;20509;-64
2022/11/08 08:32:46;;;;;;;9.80;1.90;;;10.70;99.90;;;;;;5009430;28;20415;-64
2022/11/08 08:35:12;;;;;;;1.98;1.73;;;10.80;99.90;;;;;;5023873;28;20364;-64
2022/11/08 08:37:38;;;;;;;2.95;1.20;;;11.00;99.90;;;;;;5008705;28;20030;-65
2022/11/08 08:40:04;;;;;;;4.18;1.33;;;11.10;99.90;;;;;;5007614;28;20391;-64
2022/11/08 08:42:32;;;;;;;3.65;1.13;;;11.30;99.90;;;;;;5021922;28;20022;-63
2022/11/08 08:44:58;;;;;;;3.17;1.88;;;11.40;99.90;;;;;;5020557;28;20480;-64
2022/11/08 08:47:23;;;;;;;3.55;1.25;;;11.50;99.90;;;;;;5010743;28;20026;-64
2022/11/08 08:49:49;;;;;;;1.77;1.02;;;11.70;99.90;;;;;;5013057;28;20032;-65
2022/11/08 08:52:15;;;;;;;4.53;1.38;;;11.70;99.90;;;;;;5023153;28;20026;-64
2022/11/08 08:54:40;;;;;;;8.98;1.52;;;11.80;99.90;;;;;;5008118;28;20034;-64
2022/11/08 08:57:06;;;;;;;5.43;1.27;;;11.90;99.90;;;;;;5009428;28;20476;-64
2022/11/08 08:59:31;;;;;;;2.38;1.40;;;12.00;99.90;;;;;;5005262;28;20403;-64
2022/11/08 09:01:58;;;;;;;1.55;1.15;;;12.10;99.90;;;;;;5010268;28;20026;-65
2022/11/08 09:04:24;;;;;;;2.88;1.25;;;12.20;99.90;;;;;;5012435;28;20032;-63
2022/11/08 09:06:49;;;;;;;3.40;1.00;;;12.30;99.90;;;;;;5013762;28;20030;-64
2022/11/08 09:09:15;;;;;;;5.88;1.90;;;12.40;99.90;;;;;;5010600;28;20046;-65
2022/11/08 09:11:40;;;;;;;1.13;0.95;;;12.50;99.90;;;;;;5007405;28;20030;-64
2022/11/08 09:14:06;;;;;;;4.53;1.40;;;12.60;99.90;;;;;;5003964;28;20522;-64
2022/11/08 09:16:32;;;;;;;1.75;0.98;;;12.80;99.90;;;;;;5009405;28;20045;-64
2022/11/08 09:18:57;;;;;;;4.50;1.17;;;12.90;99.90;;;;;;5004220;28;20057;-64
2022/11/08 09:21:23;;;;;;;2.13;1.13;;;13.20;99.90;;;;;;4993604;28;20046;-63
2022/11/08 09:23:48;;;;;;;5.63;1.60;;;13.60;99.90;;;;;;5013771;28;20495;-63
2022/11/08 09:26:14;;;;;;;2.45;1.27;;;13.70;99.90;;;;;;5012491;28;20049;-63
2022/11/08 09:28:39;;;;;;;1.45;0.98;;;13.70;99.90;;;;;;5007430;28;20069;-64
2022/11/08 09:31:08;;;;;;;5.03;1.55;;;13.80;99.90;;;;;;5015936;28;20037;-64
2022/11/08 09:33:34;;;;;;;8.43;1.55;;;13.70;99.90;;;;;;5015280;28;20037;-63
2022/11/08 09:36:01;;;;;;;3.90;1.30;;;13.60;99.90;;;;;;5017032;28;20021;-64
2022/11/08 09:38:27;;;;;;;3.03;1.40;;;13.50;99.90;;;;;;5009252;28;20033;-64
2022/11/08 09:41:04;;;;;;;4.97;1.40;;;13.50;99.90;;;;;;5016604;28;20022;-65
2022/11/08 09:43:51;;;;;;;1.90;1.30;;;13.50;99.90;;;;;;5017978;28;20029;-65
2022/11/08 09:46:44;;;;;;;4.93;1.60;;;13.40;99.90;;;;;;5006682;28;20034;-64
2022/11/08 09:49:21;;;;;;;5.45;1.48;;;13.50;99.90;;;;;;5005690;28;20032;-64
2022/11/08 09:51:47;;;;;;;5.97;1.30;;;13.40;99.90;;;;;;5007910;28;20403;-65
2022/11/08 09:54:28;;;;;;;1.90;1.13;;;13.50;99.90;;;;;;5016765;28;20034;-64
2022/11/08 09:56:56;;;;;;;2.80;1.30;;;13.50;99.90;;;;;;5001082;28;20053;-64
2022/11/08 09:59:41;;;;;;;1.73;1.20;;;13.40;99.90;;;;;;5007447;28;20021;-64
2022/11/08 10:02:17;;;;;;;3.65;1.10;;;13.30;99.90;;;;;;4997371;28;20097;-64
2022/11/08 10:04:54;;;;;;;2.13;1.10;;;13.30;99.90;;;;;;5008754;28;20013;-64
2022/11/08 10:07:44;;;;;;;6.05;1.30;;;13.20;99.90;;;;;;5007257;28;20925;-64
2022/11/08 10:10:35;;;;;;;4.32;1.42;;;13.10;99.90;;;;;;5002523;28;20076;-64
2022/11/08 10:13:09;;;;;;;5.78;1.77;;;13.00;99.90;;;;;;5007631;28;20030;-64
2022/11/08 10:15:49;;;;;;;3.13;1.40;;;13.00;99.90;;;;;;5010351;28;20028;-64
2022/11/08 10:18:35;;;;;;;3.55;1.38;;;13.10;99.90;;;;;;4999720;28;20831;-64
2022/11/08 10:21:31;;;;;;;3.30;2.15;;;13.10;99.90;;;;;;4982586;28;20046;-64
2022/11/08 10:24:07;;;;;;;6.43;1.30;;;13.10;99.90;;;;;;5002725;28;20145;-64
2022/11/08 10:26:36;;;;;;;2.35;1.40;;;13.20;99.90;;;;;;5014279;28;20045;-64
2022/11/08 10:29:07;;;;;;;3.17;1.33;;;13.20;99.90;;;;;;5005708;28;20038;-64
2022/11/08 10:31:36;;;;;;;3.08;1.33;;;13.20;99.90;;;;;;5007166;28;20055;-63
2022/11/08 10:34:13;;;;;;;4.50;2.05;;;13.20;99.90;;;;;;5006068;28;20168;-65
2022/11/08 10:36:43;;;;;;;3.72;1.98;;;13.30;99.90;;;;;;5013811;28;20022;-64
2022/11/08 10:39:14;;;;;;;2.97;1.40;;;13.20;99.90;;;;;;5010032;28;20048;-64
2022/11/08 10:41:59;;;;;;;3.35;1.42;;;13.30;99.90;;;;;;5013423;28;20041;-64
2022/11/08 10:44:25;;;;;;;;;;;13.30;99.90;;;;;;5008780;28;20025;-65
2022/11/08 10:46:56;;;;;;;3.70;1.52;;;13.40;99.90;;;;;;5010596;28;20023;-65
2022/11/08 10:49:25;;;;;;;2.35;1.27;;;13.50;99.90;;;;;;5010239;28;20144;-63
2022/11/08 10:51:54;;;;;;;2.97;1.80;;;13.50;99.90;;;;;;5014146;28;20053;-64
2022/11/08 10:54:51;;;;;;;5.95;2.15;;;13.60;99.90;;;;;;5007306;28;20034;-64
2022/11/08 10:57:40;;;;;;;7.78;1.88;;;13.70;99.90;;;;;;5023407;22;20056;-66
2022/11/08 11:00:21;;;;;;;4.78;1.45;;;13.70;99.90;;;;;;5003985;28;20545;-66
2022/11/08 11:03:15;;;;;;;6.72;3.00;;;13.70;99.90;;;;;;4998832;28;20026;-67
2022/11/08 11:05:42;;;;;;;4.07;2.03;;;13.70;99.90;;;;;;5003203;28;20763;-66
2022/11/08 11:08:08;;;;;;;3.58;2.28;;;13.70;99.90;;;;;;5003338;28;20038;-66
2022/11/08 11:10:42;;;;;;;2.97;1.30;;;13.70;99.90;;;;;;5005131;28;20507;-66
2022/11/08 11:13:17;;;;;;;4.32;1.80;;;13.60;99.90;;;;;;5002874;28;20037;-66
2022/11/08 11:15:51;;;;;;;2.67;1.38;;;13.70;99.90;;;;;;5004506;28;20038;-66
2022/11/08 11:18:20;;;;;;;;;;;13.70;99.90;;;;;;5009707;28;20018;-66
2022/11/08 11:21:10;;;;;;;7.38;3.40;;;13.70;99.90;;;;;;4976992;28;19974;-67
2022/11/08 11:23:39;;;;;;;6.20;2.70;;;13.80;99.90;;;;;;5013658;28;20575;-66
2022/11/08 11:26:13;;;;;;;7.03;2.28;;;13.90;99.90;;;;;;5019071;28;20112;-67
2022/11/08 11:29:00;;;;;;;6.00;2.28;;;13.90;99.90;;;;;;4992870;28;20050;-66
2022/11/08 11:31:25;;;;;;;7.07;2.08;;;13.90;99.90;;;;;;5009380;28;20030;-66
2022/11/08 11:33:51;;;;;;;5.32;2.92;;;13.90;99.90;;;;;;5016420;28;20545;-66
2022/11/08 11:36:22;;;;;;;4.05;1.70;;;13.90;99.90;;;;;;5010462;28;20505;-66
2022/11/08 11:38:47;;;;;;;6.22;1.73;;;13.90;99.90;;;;;;5000745;28;20068;-67
2022/11/08 11:41:23;;;;;;;3.28;1.30;;;13.90;99.90;;;;;;5001466;28;20018;-66
2022/11/08 11:44:14;;;;;;;2.90;1.60;;;13.90;99.90;;;;;;5001551;28;20049;-65
2022/11/08 11:50:14;;;;;;;2.58;1.20;;;14.00;99.90;;;;;;4987783;28;20096;-66
2022/11/08 11:52:39;;;;;;;4.43;1.50;;;14.00;99.90;;;;;;5007110;28;20095;-68
2022/11/08 11:55:05;;;;;;;2.38;1.10;;;14.00;99.90;;;;;;5016291;28;20038;-66
2022/11/08 11:57:41;;;;;;;1.30;1.00;;;14.00;99.90;;;;;;5024609;28;20029;-66
2022/11/08 12:00:09;;;;;;;1.85;1.45;;;14.00;99.90;;;;;;5026889;28;20024;-67
2022/11/08 12:02:47;;;;;;;4.13;1.25;;;14.00;99.90;;;;;;5014067;28;20026;-67
2022/11/08 12:05:44;;;;;;;14.45;1.73;;;13.90;99.90;;;;;;4992714;28;20101;-66
2022/11/08 12:08:34;;;;;;;3.53;1.77;;;14.00;99.90;;;;;;4999384;28;20092;-67
2022/11/08 12:11:24;;;;;;;5.35;2.05;;;14.00;99.90;;;;;;4995762;28;20049;-65
2022/11/08 12:14:09;;;;;;;2.22;1.52;;;14.00;99.90;;;;;;4995360;28;20026;-65
2022/11/08 12:16:58;;;;;;;2.65;1.48;;;13.90;99.90;;;;;;5000487;28;20029;-67
2022/11/08 12:19:39;;;;;;;2.72;1.20;;;14.00;99.90;;;;;;5005125;28;20137;-67
2022/11/08 12:22:23;;;;;;;2.30;1.10;;;14.00;99.90;;;;;;4977684;28;20435;-66
2022/11/08 12:24:56;;;;;;;;;;;14.00;99.90;;;;;;4998807;28;20022;-67
2022/11/08 12:27:33;;;;;;;3.25;1.52;;;14.10;99.90;;;;;;4999321;28;19917;-66
2022/11/08 12:30:14;;;;;;;3.33;1.55;;;14.00;99.90;;;;;;4995884;28;20022;-66
2022/11/08 12:33:19;;;;;;;2.35;1.15;;;14.00;99.90;;;;;;4996266;28;20038;-66
2022/11/08 12:36:03;;;;;;;2.67;1.38;;;14.10;99.90;;;;;;5012249;28;20372;-66
2022/11/08 12:38:35;;;;;;;5.22;1.50;;;14.10;99.90;;;;;;5016488;28;20105;-66
2022/11/08 12:41:22;;;;;;;8.20;1.70;;;14.20;99.90;;;;;;5000566;28;20092;-66
2022/11/08 12:44:14;;;;;;;3.67;1.33;;;14.30;99.90;;;;;;4996697;28;20516;-66
2022/11/08 12:47:08;;;;;;;1.95;1.50;;;14.40;99.90;;;;;;4994678;28;20068;-66
2022/11/08 12:50:04;;;;;;;6.00;1.30;;;14.50;99.90;;;;;;5007441;28;20558;-66
2022/11/08 12:52:44;;;;;;;2.08;1.25;;;14.50;99.90;;;;;;5007960;28;20443;-66
2022/11/08 12:55:26;;;;;;;2.08;1.70;;;14.50;99.90;;;;;;4990832;28;20512;-66
2022/11/08 12:57:53;;;;;;;1.88;1.23;;;14.50;99.90;;;;;;5002604;28;20232;-66
2022/11/08 13:00:19;;;;;;;4.43;1.63;;;14.50;99.90;;;;;;4996741;28;20030;-67
2022/11/08 13:03:05;;;;;;;3.28;1.50;;;14.60;99.90;;;;;;4995513;28;20022;-66
2022/11/08 13:05:46;;;;;;;7.97;2.13;;;14.60;99.90;;;;;;4999048;28;20034;-66
2022/11/08 13:08:22;;;;;;;2.22;1.50;;;14.60;99.90;;;;;;4999616;28;20365;-66
2022/11/08 13:11:06;;;;;;;4.20;1.42;;;14.50;99.90;;;;;;4992702;28;20030;-66
2022/11/08 13:13:50;;;;;;;4.18;1.63;;;14.40;99.90;;;;;;4993557;28;20057;-65
2022/11/08 13:16:19;;;;;;;4.43;1.63;;;14.30;99.90;;;;;;4995697;28;20030;-66
2022/11/08 13:19:00;;;;;;;2.97;1.38;;;14.30;99.90;;;;;;4990480;28;20101;-67
2022/11/08 13:21:36;;;;;;;4.35;1.50;;;14.30;99.90;;;;;;4998885;28;20079;-67
2022/11/08 13:24:05;;;;;;;6.00;1.52;;;14.30;99.90;;;;;;5006194;28;20018;-67
2022/11/08 13:26:33;;;;;;;5.47;1.30;;;14.30;99.90;;;;;;5008674;28;20030;-67
2022/11/08 13:29:17;;;;;;;1.95;1.15;;;14.30;99.90;;;;;;5008591;28;20024;-67
2022/11/08 13:32:06;;;;;;;3.33;1.60;;;14.50;99.90;;;;;;5022746;28;20025;-67